createdAt,value
2022-11-05T00:00:38.991Z,85.17
2022-11-05T00:03:28.841Z,85.05
2022-11-05T00:06:15.616Z,85.65
2022-11-05T00:09:02.606Z,85.81
2022-11-05T00:11:49.094Z,85.82
2022-11-05T00:14:36.113Z,85.82
2022-11-05T00:17:04.289Z,85.91
2022-11-05T00:19:32.457Z,85.84
2022-11-05T00:22:19.267Z,85.67
2022-11-05T00:25:05.743Z,85.60
2022-11-05T00:27:34.470Z,86.01
2022-11-05T00:30:07.186Z,85.90
2022-11-05T00:32:36.639Z,86.19
2022-11-05T00:35:06.959Z,86.26
2022-11-05T00:37:35.713Z,86.30
2022-11-05T00:40:04.823Z,86.43
2022-11-05T00:42:51.524Z,86.47
2022-11-05T00:45:20.062Z,86.81
2022-11-05T00:48:07.108Z,86.44
2022-11-05T00:50:35.739Z,86.64
2022-11-05T00:53:04.352Z,86.52
2022-11-05T00:55:41.360Z,86.77
2022-11-05T00:58:13.001Z,86.92
2022-11-05T01:00:43.778Z,86.76
2022-11-05T01:03:16.826Z,86.86
2022-11-05T01:05:55.393Z,86.92
2022-11-05T01:08:28.265Z,87.19
2022-11-05T01:10:58.484Z,87.31
2022-11-05T01:13:30.141Z,87.04
2022-11-05T01:15:58.330Z,87.21
2022-11-05T01:18:26.487Z,87.39
2022-11-05T01:20:54.554Z,87.25
2022-11-05T01:23:22.824Z,87.39
2022-11-05T01:25:51.105Z,87.34
2022-11-05T01:28:19.211Z,87.14
2022-11-05T01:30:55.827Z,87.24
2022-11-05T01:33:24.556Z,87.63
2022-11-05T01:35:53.664Z,87.52
2022-11-05T01:38:21.799Z,87.82
2022-11-05T01:40:50.055Z,87.42
2022-11-05T01:43:20.602Z,87.36
2022-11-05T01:45:57.069Z,87.37
2022-11-05T01:48:33.464Z,87.42
2022-11-05T01:51:04.019Z,87.42
2022-11-05T01:54:07.343Z,87.03
2022-11-05T01:56:41.176Z,87.21
2022-11-05T01:59:19.065Z,87.22
2022-11-05T02:01:47.380Z,87.30
2022-11-05T02:04:23.738Z,87.31
2022-11-05T02:06:53.269Z,87.06
2022-11-05T02:09:43.931Z,87.18
2022-11-05T02:12:14.039Z,87.40
2022-11-05T02:14:42.306Z,87.27
2022-11-05T02:17:32.810Z,87.37
2022-11-05T02:20:12.609Z,87.64
2022-11-05T02:22:55.980Z,87.62
2022-11-05T02:25:57.943Z,87.49
2022-11-05T02:28:37.766Z,87.35
2022-11-05T02:31:23.956Z,87.32
2022-11-05T02:33:57.104Z,87.45
2022-11-05T02:36:37.335Z,87.25
2022-11-05T02:39:26.803Z,87.20
2022-11-05T02:42:12.180Z,86.98
2022-11-05T02:45:02.932Z,86.97
2022-11-05T02:47:30.951Z,87.02
2022-11-05T02:50:36.391Z,87.10
2022-11-05T02:53:13.738Z,86.97
2022-11-05T02:56:03.667Z,87.17
2022-11-05T02:58:35.556Z,86.99
2022-11-05T03:01:07.189Z,87.26
2022-11-05T03:03:37.488Z,87.28
2022-11-05T03:06:24.208Z,87.13
2022-11-05T03:09:10.106Z,87.45
2022-11-05T03:12:10.223Z,87.42
2022-11-05T03:15:03.998Z,87.47
2022-11-05T03:17:41.279Z,87.52
2022-11-05T03:20:30.544Z,87.69
2022-11-05T03:23:31.894Z,87.63
2022-11-05T03:26:09.001Z,87.51
2022-11-05T03:28:42.783Z,87.54
2022-11-05T03:31:13.533Z,87.47
2022-11-05T03:33:44.454Z,87.36
2022-11-05T03:36:19.587Z,87.43
2022-11-05T03:38:51.617Z,87.71
2022-11-05T03:41:22.386Z,87.58
2022-11-05T03:43:54.725Z,87.46
2022-11-05T03:46:22.825Z,87.40
2022-11-05T03:48:53.912Z,87.07
2022-11-05T03:51:44.158Z,86.99
2022-11-05T03:54:13.645Z,86.89
2022-11-05T03:57:16.857Z,86.80
2022-11-05T03:59:47.047Z,86.84
2022-11-05T04:02:18.443Z,86.77
2022-11-05T04:04:47.062Z,87.16
2022-11-05T04:07:34.106Z,87.08
2022-11-05T04:10:20.934Z,87.04
2022-11-05T04:13:07.955Z,87.04
2022-11-05T04:15:56.192Z,87.06
2022-11-05T04:18:24.365Z,86.78
2022-11-05T04:21:11.480Z,86.67
2022-11-05T04:23:58.209Z,86.77
2022-11-05T04:26:26.178Z,86.57
2022-11-05T04:29:13.278Z,86.72
2022-11-05T04:31:41.239Z,86.69
2022-11-05T04:34:09.415Z,86.58
2022-11-05T04:36:37.487Z,86.61
2022-11-05T04:39:05.762Z,86.57
2022-11-05T04:41:33.930Z,86.60
2022-11-05T04:44:02.717Z,86.50
2022-11-05T04:46:30.694Z,86.41
2022-11-05T04:48:58.758Z,86.62
2022-11-05T04:51:27.467Z,86.49
2022-11-05T04:53:55.511Z,85.96
2022-11-05T04:56:25.455Z,85.90
2022-11-05T04:58:53.805Z,85.70
2022-11-05T05:01:25.458Z,85.76
2022-11-05T05:03:54.766Z,85.68
2022-11-05T05:06:23.226Z,85.72
2022-11-05T05:08:51.990Z,85.63
2022-11-05T05:11:22.010Z,85.54
2022-11-05T05:13:50.315Z,85.46
2022-11-05T05:16:24.050Z,85.45
2022-11-05T05:18:52.947Z,85.58
2022-11-05T05:21:41.585Z,85.48
2022-11-05T05:24:12.924Z,85.62
2022-11-05T05:26:48.714Z,85.71
2022-11-05T05:29:18.127Z,85.91
2022-11-05T05:31:46.235Z,85.87
2022-11-05T05:34:15.223Z,85.76
2022-11-05T05:36:43.219Z,85.67
2022-11-05T05:39:11.313Z,85.46
2022-11-05T05:41:39.744Z,85.56
2022-11-05T05:44:08.090Z,85.58
2022-11-05T05:46:36.193Z,85.55
2022-11-05T05:49:07.993Z,85.55
2022-11-05T05:51:40.514Z,85.73
2022-11-05T05:54:08.722Z,85.84
2022-11-05T05:56:36.766Z,85.77
2022-11-05T05:59:06.123Z,85.88
2022-11-05T06:01:34.369Z,85.99
2022-11-05T06:04:02.683Z,85.96
2022-11-05T06:06:31.015Z,85.99
2022-11-05T06:08:59.167Z,86.28
2022-11-05T06:11:27.756Z,86.29
2022-11-05T06:13:55.927Z,86.35
2022-11-05T06:16:24.099Z,86.41
2022-11-05T06:18:52.117Z,86.44
2022-11-05T06:21:20.589Z,86.71
2022-11-05T06:23:49.992Z,86.70
2022-11-05T06:26:19.465Z,86.85
2022-11-05T06:28:47.730Z,86.90
2022-11-05T06:31:16.020Z,86.98
2022-11-05T06:33:44.335Z,87.02
2022-11-05T06:36:15.777Z,87.11
2022-11-05T06:38:44.104Z,87.29
2022-11-05T06:41:12.273Z,87.27
2022-11-05T06:43:40.521Z,87.31
2022-11-05T06:46:10.594Z,87.42
2022-11-05T06:48:39.253Z,87.45
2022-11-05T06:51:08.454Z,87.67
2022-11-05T06:53:36.949Z,87.43
2022-11-05T06:56:06.837Z,87.62
2022-11-05T06:58:35.247Z,87.61
2022-11-05T07:01:09.259Z,87.77
2022-11-05T07:03:38.314Z,87.82
2022-11-05T07:06:07.682Z,87.87
2022-11-05T07:08:37.540Z,87.96
2022-11-05T07:11:06.289Z,88.11
2022-11-05T07:13:34.735Z,88.17
2022-11-05T07:16:02.875Z,88.16
2022-11-05T07:18:30.946Z,88.28
2022-11-05T07:21:00.639Z,88.49
2022-11-05T07:23:28.943Z,88.52
2022-11-05T07:25:57.017Z,88.56
2022-11-05T07:28:25.035Z,88.48
2022-11-05T07:30:54.368Z,88.47
2022-11-05T07:33:22.338Z,88.61
2022-11-05T07:35:50.453Z,88.47
2022-11-05T07:38:19.485Z,88.49
2022-11-05T07:40:47.493Z,88.54
2022-11-05T07:43:15.712Z,88.65
2022-11-05T07:45:46.794Z,88.52
2022-11-05T07:48:14.828Z,88.66
2022-11-05T07:50:42.880Z,88.72
2022-11-05T07:53:15.231Z,88.71
2022-11-05T07:55:46.235Z,88.74
2022-11-05T07:58:14.824Z,88.67
2022-11-05T08:00:43.021Z,88.52
2022-11-05T08:03:16.494Z,88.43
2022-11-05T08:05:47.837Z,88.60
2022-11-05T08:08:18.366Z,88.55
2022-11-05T08:10:47.059Z,88.69
2022-11-05T08:13:16.062Z,88.68
2022-11-05T08:15:45.348Z,88.87
2022-11-05T08:18:15.839Z,88.83
2022-11-05T08:20:45.218Z,88.68
2022-11-05T08:23:14.504Z,88.89
2022-11-05T08:25:43.049Z,88.97
2022-11-05T08:28:13.253Z,88.98
2022-11-05T08:30:42.055Z,89.12
2022-11-05T08:33:12.774Z,89.14
2022-11-05T08:35:41.888Z,89.09
2022-11-05T08:38:14.053Z,89.06
2022-11-05T08:40:44.373Z,89.10
2022-11-05T08:43:14.818Z,88.86
2022-11-05T08:45:43.077Z,88.93
2022-11-05T08:48:15.070Z,88.89
2022-11-05T08:50:44.839Z,89.04
2022-11-05T08:53:13.687Z,89.00
2022-11-05T08:55:42.025Z,88.95
2022-11-05T08:58:17.188Z,89.04
2022-11-05T09:00:47.973Z,88.93
2022-11-05T09:03:16.796Z,88.93
2022-11-05T09:05:45.341Z,88.97
2022-11-05T09:08:18.750Z,89.05
2022-11-05T09:10:48.136Z,89.14
2022-11-05T09:13:19.277Z,88.92
2022-11-05T09:15:49.951Z,88.89
2022-11-05T09:18:19.667Z,88.85
2022-11-05T09:20:48.134Z,88.90
2022-11-05T09:23:16.444Z,88.74
2022-11-05T09:25:45.274Z,88.73
2022-11-05T09:28:17.428Z,88.72
2022-11-05T09:30:50.792Z,88.90
2022-11-05T09:33:24.397Z,88.99
2022-11-05T09:35:53.708Z,88.99
2022-11-05T09:38:21.896Z,88.72
2022-11-05T09:41:09.027Z,88.78
2022-11-05T09:43:46.240Z,88.59
2022-11-05T09:46:23.093Z,88.60
2022-11-05T09:49:01.577Z,88.60
2022-11-05T09:51:30.614Z,88.42
2022-11-05T09:54:02.969Z,88.66
2022-11-05T09:56:37.038Z,88.86
2022-11-05T09:59:14.454Z,88.75
2022-11-05T10:01:45.455Z,88.86
2022-11-05T10:04:18.393Z,88.97
2022-11-05T10:07:00.062Z,88.96
2022-11-05T10:09:35.440Z,89.35
2022-11-05T10:12:20.410Z,88.93
2022-11-05T10:15:02.924Z,88.73
2022-11-05T10:17:38.754Z,88.92
2022-11-05T10:20:20.851Z,88.90
2022-11-05T10:23:01.903Z,88.95
2022-11-05T10:25:33.173Z,88.99
2022-11-05T10:28:03.880Z,89.03
2022-11-05T10:30:32.386Z,88.94
2022-11-05T10:33:03.152Z,89.03
2022-11-05T10:35:34.341Z,89.28
2022-11-05T10:38:03.107Z,89.14
2022-11-05T10:41:01.533Z,89.29
2022-11-05T10:43:49.158Z,89.09
2022-11-05T10:46:49.588Z,88.56
2022-11-05T10:49:26.360Z,88.31
2022-11-05T10:51:57.530Z,88.15
2022-11-05T10:54:32.024Z,88.01
2022-11-05T10:57:00.199Z,87.84
2022-11-05T10:59:30.419Z,87.36
2022-11-05T11:02:16.065Z,86.90
2022-11-05T11:04:44.276Z,86.57
2022-11-05T11:07:23.121Z,86.32
2022-11-05T11:09:51.886Z,86.28
2022-11-05T11:12:27.593Z,86.17
2022-11-05T11:15:26.236Z,86.12
2022-11-05T11:17:56.760Z,86.04
2022-11-05T11:20:29.123Z,85.75
2022-11-05T11:23:17.472Z,85.67
2022-11-05T11:25:50.661Z,85.53
2022-11-05T11:28:29.888Z,85.37
2022-11-05T11:31:09.952Z,85.39
2022-11-05T11:33:40.168Z,85.43
2022-11-05T11:36:11.003Z,85.15
2022-11-05T11:38:39.580Z,85.00
2022-11-05T11:41:23.009Z,84.86
2022-11-05T11:43:56.862Z,85.10
2022-11-05T11:46:25.524Z,85.33
2022-11-05T11:48:53.624Z,85.37
2022-11-05T11:51:40.673Z,85.25
2022-11-05T11:54:21.117Z,85.22
2022-11-05T11:56:49.093Z,84.93
2022-11-05T11:59:35.348Z,84.83
2022-11-05T12:02:26.928Z,84.92
2022-11-05T12:05:03.909Z,84.88
2022-11-05T12:07:37.821Z,84.87
2022-11-05T12:10:19.421Z,85.24
2022-11-05T12:13:02.042Z,85.27
2022-11-05T12:15:56.219Z,85.24
2022-11-05T12:18:39.264Z,85.43
2022-11-05T12:21:50.893Z,85.26
2022-11-05T12:24:26.004Z,85.26
2022-11-05T12:27:15.282Z,85.20
2022-11-05T12:29:55.164Z,85.20
2022-11-05T12:32:41.858Z,85.14
2022-11-05T12:35:28.886Z,85.01
2022-11-05T12:38:20.159Z,84.98
2022-11-05T12:41:15.659Z,85.21
2022-11-05T12:44:02.629Z,85.33
2022-11-05T12:46:44.944Z,85.21
2022-11-05T12:49:12.973Z,85.03
2022-11-05T12:52:00.018Z,85.01
2022-11-05T12:55:03.189Z,84.71
2022-11-05T12:57:35.684Z,85.08
2022-11-05T13:00:03.652Z,85.09
2022-11-05T13:02:49.856Z,84.76
2022-11-05T13:05:35.262Z,84.73
2022-11-05T13:08:19.141Z,84.74
2022-11-05T13:10:54.903Z,84.68
2022-11-05T13:13:35.199Z,84.92
2022-11-05T13:16:35.806Z,84.71
2022-11-05T13:19:25.407Z,84.76
2022-11-05T13:22:22.183Z,84.83
2022-11-05T13:24:54.801Z,84.68
2022-11-05T13:27:53.694Z,85.14
2022-11-05T13:30:29.649Z,85.06
2022-11-05T13:33:26.727Z,84.84
2022-11-05T13:36:38.465Z,85.12
2022-11-05T13:39:26.994Z,85.04
2022-11-05T13:42:18.204Z,85.14
2022-11-05T13:45:08.064Z,85.00
2022-11-05T13:47:57.623Z,85.07
2022-11-05T13:50:51.186Z,85.25
2022-11-05T13:53:39.849Z,85.17
2022-11-05T13:56:16.781Z,84.92
2022-11-05T13:59:02.901Z,85.17
2022-11-05T14:01:59.027Z,85.07
2022-11-05T14:04:41.776Z,85.15
2022-11-05T14:07:19.923Z,85.53
2022-11-05T14:09:58.088Z,85.54
2022-11-05T14:12:32.071Z,85.85
2022-11-05T14:15:05.375Z,85.66
2022-11-05T14:17:54.716Z,85.35
2022-11-05T14:20:39.411Z,85.50
2022-11-05T14:23:23.338Z,85.14
2022-11-05T14:25:54.377Z,85.20
2022-11-05T14:28:34.840Z,85.16
2022-11-05T14:31:04.855Z,85.03
2022-11-05T14:33:38.858Z,84.95
2022-11-05T14:36:22.221Z,84.95
2022-11-05T14:38:52.612Z,85.11
2022-11-05T14:41:21.687Z,85.09
2022-11-05T14:44:05.138Z,85.12
2022-11-05T14:46:45.819Z,85.16
2022-11-05T14:49:21.305Z,85.19
2022-11-05T14:51:51.779Z,84.71
2022-11-05T14:54:25.778Z,84.74
2022-11-05T14:56:59.656Z,84.92
2022-11-05T14:59:28.483Z,84.74
2022-11-05T15:01:57.722Z,85.05
2022-11-05T15:04:37.420Z,85.21
2022-11-05T15:07:05.969Z,84.94
2022-11-05T15:09:58.528Z,84.76
2022-11-05T15:12:46.586Z,84.53
2022-11-05T15:15:23.876Z,84.60
2022-11-05T15:18:03.935Z,84.78
2022-11-05T15:20:39.762Z,84.78
2022-11-05T15:23:14.983Z,84.86
2022-11-05T15:26:13.000Z,84.78
2022-11-05T15:28:48.117Z,85.12
2022-11-05T15:31:16.212Z,85.27
2022-11-05T15:33:47.848Z,85.26
2022-11-05T15:36:25.757Z,84.97
2022-11-05T15:39:22.970Z,85.11
2022-11-05T15:41:43.295Z,85.09
2022-11-05T15:44:33.145Z,85.00
2022-11-05T15:47:25.937Z,85.16
2022-11-05T15:49:59.629Z,85.23
2022-11-05T15:52:52.277Z,84.91
2022-11-05T15:55:25.612Z,85.01
2022-11-05T15:58:09.476Z,84.80
2022-11-05T16:00:37.887Z,84.95
2022-11-05T16:03:27.820Z,85.03
2022-11-05T16:05:56.568Z,85.11
2022-11-05T16:08:27.855Z,85.14
2022-11-05T16:11:00.247Z,85.18
2022-11-05T16:13:33.027Z,85.12
2022-11-05T16:16:04.571Z,85.13
2022-11-05T16:18:39.024Z,85.04
2022-11-05T16:21:09.958Z,84.85
2022-11-05T16:23:42.959Z,84.84
2022-11-05T16:29:34.483Z,84.93
2022-11-05T16:32:06.933Z,84.86
2022-11-05T16:34:41.995Z,84.95
2022-11-05T16:37:15.698Z,85.02
2022-11-05T16:39:43.760Z,85.15
2022-11-05T16:42:20.953Z,84.97
2022-11-05T16:44:55.040Z,85.14
2022-11-05T16:47:23.641Z,85.13
2022-11-05T16:49:52.355Z,85.12
2022-11-05T16:52:20.562Z,85.17
2022-11-05T16:54:48.602Z,85.16
2022-11-05T16:57:29.376Z,85.09
2022-11-05T16:59:59.563Z,85.25
2022-11-05T17:02:28.940Z,85.40
2022-11-05T17:04:57.341Z,85.43
2022-11-05T17:07:25.431Z,85.49
2022-11-05T17:09:53.507Z,85.58
2022-11-05T17:12:21.662Z,85.63
2022-11-05T17:14:49.757Z,85.58
2022-11-05T17:17:17.798Z,85.41
2022-11-05T17:19:46.868Z,85.38
2022-11-05T17:22:14.864Z,85.44
2022-11-05T17:24:42.874Z,85.28
2022-11-05T17:27:10.879Z,85.11
2022-11-05T17:29:38.964Z,85.07
2022-11-05T17:32:07.457Z,84.84
2022-11-05T17:34:35.428Z,84.87
2022-11-05T17:37:03.535Z,84.92
2022-11-05T17:39:32.149Z,85.06
2022-11-05T17:42:00.216Z,84.90
2022-11-05T17:44:28.166Z,85.02
2022-11-05T17:46:56.179Z,85.17
2022-11-05T17:49:24.251Z,85.28
2022-11-05T17:51:52.320Z,85.26
2022-11-05T17:54:20.446Z,85.30
2022-11-05T17:56:48.431Z,85.24
2022-11-05T17:59:16.551Z,85.15
2022-11-05T18:01:46.213Z,85.15
2022-11-05T18:04:14.514Z,85.00
2022-11-05T18:06:43.179Z,85.00
2022-11-05T18:09:12.586Z,84.97
2022-11-05T18:11:41.399Z,84.86
2022-11-05T18:14:10.294Z,84.89
2022-11-05T18:16:38.346Z,84.93
2022-11-05T18:19:06.518Z,85.02
2022-11-05T18:21:34.700Z,85.24
2022-11-05T18:24:06.175Z,85.39
2022-11-05T18:26:34.859Z,85.49
2022-11-05T18:29:05.112Z,85.56
2022-11-05T18:31:33.228Z,85.80
2022-11-05T18:34:01.708Z,85.88
2022-11-05T18:36:32.534Z,85.60
2022-11-05T18:39:01.814Z,85.56
2022-11-05T18:41:30.523Z,85.62
2022-11-05T18:44:00.746Z,85.60
2022-11-05T18:49:20.844Z,85.57
2022-11-05T18:51:49.018Z,85.53
2022-11-05T18:54:17.628Z,85.63
2022-11-05T18:56:46.299Z,85.66
2022-11-05T19:02:08.911Z,85.41
2022-11-05T19:04:37.530Z,85.36
2022-11-05T19:07:06.972Z,85.35
2022-11-05T19:09:36.435Z,85.30
2022-11-05T19:12:05.943Z,84.96
2022-11-05T19:14:35.299Z,84.89
2022-11-05T19:17:03.716Z,84.40
2022-11-05T19:19:31.800Z,84.41
2022-11-05T19:21:59.961Z,84.43
2022-11-05T19:24:28.034Z,84.00
2022-11-05T19:26:56.178Z,83.86
2022-11-05T19:29:24.197Z,83.87
2022-11-05T19:31:52.394Z,84.07
2022-11-05T19:34:20.711Z,83.97
2022-11-05T19:36:48.867Z,83.91
2022-11-05T19:39:17.088Z,84.08
2022-11-05T19:41:45.122Z,84.09
2022-11-05T19:44:13.925Z,84.07
2022-11-05T19:46:44.251Z,84.01
2022-11-05T19:49:12.734Z,84.05
2022-11-05T19:51:40.810Z,83.76
2022-11-05T19:54:09.499Z,83.72
2022-11-05T19:56:38.666Z,83.64
2022-11-05T19:59:08.132Z,83.69
2022-11-05T20:01:36.538Z,83.59
2022-11-05T20:04:05.966Z,83.78
2022-11-05T20:06:39.888Z,83.46
2022-11-05T20:09:27.639Z,83.48
2022-11-05T20:11:59.361Z,83.73
2022-11-05T20:14:27.535Z,83.67
2022-11-05T20:16:55.973Z,83.71
2022-11-05T20:19:23.993Z,83.70
2022-11-05T20:21:52.475Z,83.53
2022-11-05T20:24:25.261Z,83.52
2022-11-05T20:26:54.997Z,83.65
2022-11-05T20:29:29.030Z,83.64
2022-11-05T20:32:03.279Z,83.74
2022-11-05T20:34:33.329Z,83.71
2022-11-05T20:37:02.186Z,83.47
2022-11-05T20:39:30.564Z,83.55
2022-11-05T20:42:00.597Z,83.50
2022-11-05T20:44:29.029Z,83.57
2022-11-05T20:46:57.239Z,83.63
2022-11-05T20:49:25.949Z,83.41
2022-11-05T20:51:54.730Z,82.95
2022-11-05T20:54:23.087Z,82.67
2022-11-05T20:56:51.103Z,82.71
2022-11-05T20:59:19.837Z,83.00
2022-11-05T21:01:48.137Z,82.98
2022-11-05T21:04:16.492Z,83.04
2022-11-05T21:06:44.500Z,83.16
2022-11-05T21:09:13.038Z,82.83
2022-11-05T21:12:00.081Z,82.71
2022-11-05T21:14:28.598Z,82.88
2022-11-05T21:16:56.809Z,82.77
2022-11-05T21:19:24.849Z,82.62
2022-11-05T21:21:52.948Z,82.66
2022-11-05T21:24:21.127Z,82.51
2022-11-05T21:26:50.217Z,82.43
2022-11-05T21:29:18.431Z,82.41
2022-11-05T21:31:47.124Z,82.45
2022-11-05T21:34:16.630Z,82.49
2022-11-05T21:36:45.023Z,82.49
2022-11-05T21:39:14.014Z,82.43
2022-11-05T21:41:42.851Z,82.45
2022-11-05T21:44:12.515Z,82.37
2022-11-05T21:46:40.651Z,82.33
2022-11-05T21:49:09.483Z,82.26
2022-11-05T21:51:55.906Z,82.42
2022-11-05T21:54:43.133Z,82.54
2022-11-05T21:57:35.733Z,82.56
2022-11-05T22:00:08.472Z,82.72
2022-11-05T22:02:37.338Z,82.69
2022-11-05T22:05:06.537Z,82.68
2022-11-05T22:07:36.792Z,82.81
2022-11-05T22:10:11.865Z,83.05
2022-11-05T22:12:45.706Z,83.26
2022-11-05T22:15:14.876Z,83.14
2022-11-05T22:17:46.834Z,82.95
2022-11-05T22:20:16.305Z,82.50
2022-11-05T22:22:45.456Z,82.62
2022-11-05T22:25:14.788Z,82.71
2022-11-05T22:27:44.176Z,82.80
2022-11-05T22:30:13.910Z,83.02
2022-11-05T22:32:42.138Z,83.29
2022-11-05T22:35:10.853Z,83.18
2022-11-05T22:37:38.984Z,83.22
2022-11-05T22:40:07.599Z,83.49
2022-11-05T22:42:35.917Z,83.26
2022-11-05T22:45:05.128Z,83.07
2022-11-05T22:47:33.452Z,83.39
2022-11-05T22:50:01.832Z,83.09
2022-11-05T22:52:29.882Z,82.80
2022-11-05T22:54:58.302Z,82.61
2022-11-05T22:57:26.433Z,82.83
2022-11-05T22:59:54.409Z,82.84
2022-11-05T23:02:22.509Z,83.14
2022-11-05T23:04:52.277Z,83.22
2022-11-05T23:07:38.724Z,83.72
2022-11-05T23:10:26.642Z,83.86
2022-11-05T23:12:55.438Z,83.94
2022-11-05T23:15:42.342Z,83.65
2022-11-05T23:18:29.248Z,83.48
2022-11-05T23:21:19.250Z,83.46
2022-11-05T23:24:06.253Z,83.38
2022-11-05T23:26:51.518Z,83.50
2022-11-05T23:29:22.686Z,84.12
2022-11-05T23:32:10.273Z,84.15
2022-11-05T23:34:39.063Z,84.00
2022-11-05T23:37:25.783Z,84.07
2022-11-05T23:39:54.449Z,83.93
2022-11-05T23:42:41.260Z,83.91
2022-11-05T23:45:28.686Z,83.83
2022-11-05T23:48:16.140Z,83.52
2022-11-05T23:50:48.351Z,83.41
2022-11-05T23:53:17.345Z,83.39
2022-11-05T23:55:45.436Z,83.20
2022-11-05T23:58:14.074Z,83.27
